Cornish, Maine
Current Conditions -  °F | °C
As of 1:54 AM on Wednesday 26 Nov 2014 (Local Time) from KIZG Reporting Station
Clear Clear  
Wind Chill: 39°   Ceiling: Unl
Heat Index: 39°   Visibility: 10mi
Dew Point: 25°   Wind: 3mph
Humidity: 57%   Direction: 110°ESE
Pressure: 30.1"   Gusts: NA
Location:  43.8°N, 70.8°W
Report Text: KIZG 260654Z AUTO 11003KT 10SM CLR 04/M04 A3010 RMK AO2 SLP195 T00391039
Loading
Personal Weather Stations






























Interactive Weather Map New forecast layout! Learn more

10-Day Weather Forecast

Advertisements
Track Severe Weather on mobile